Time;durP1;ratioP1;P1;durP2;ratioP2;P2;SDS_P1;SDS_P2;PMS_P1;PMS_P2;Temp;Humidity;BMP_temperature;BMP_pressure;BME280_temperature;BME280_humidity;BME280_pressure;Samples;Min_cycle;Max_cycle;Signal;HPM_P1;HPM_P2
2023/10/24 05:15:40;;;;;;;10.00;7.80;;;;;;;12.15;100.00;99563.92;101388;1295;601184;-60
2023/10/24 05:18:11;;;;;;;9.00;8.10;;;;;;;12.58;100.00;99566.89;103661;1266;62379;-61
2023/10/24 05:20:39;;;;;;;9.80;8.10;;;;;;;12.58;100.00;99570.55;103520;1270;59687;-59
2023/10/24 05:23:07;;;;;;;;;;;;;;;12.56;100.00;99579.33;104237;1262;72077;-58
2023/10/24 05:25:34;;;;;;;9.40;8.60;;;;;;;12.49;100.00;99587.95;106169;1259;69036;-59
2023/10/24 05:28:02;;;;;;;11.50;9.30;;;;;;;12.39;100.00;99595.65;107551;1259;73039;-59
2023/10/24 05:30:30;;;;;;;10.00;9.00;;;;;;;12.31;100.00;99597.98;106595;1256;249170;-59
2023/10/24 05:32:58;;;;;;;;;;;;;;;12.22;100.00;99594.05;104551;1263;59830;-59
2023/10/24 05:35:26;;;;;;;11.00;9.20;;;;;;;12.14;100.00;99593.77;104231;1276;71786;-59
2023/10/24 05:37:55;;;;;;;9.80;8.70;;;;;;;12.09;100.00;99594.14;104355;1262;69215;-59
2023/10/24 05:40:24;;;;;;;11.80;10.60;;;;;;;12.14;100.00;99596.73;104195;1260;72373;-61
2023/10/24 05:42:51;;;;;;;10.30;9.30;;;;;;;12.12;100.00;99598.03;104215;1257;61704;-58
2023/10/24 05:45:22;;;;;;;;;;;;;;;12.13;100.00;99601.70;104034;1261;59919;-60
2023/10/24 05:47:49;;;;;;;12.70;9.40;;;;;;;12.19;100.00;99598.05;104072;1257;72892;-59
2023/10/24 05:50:18;;;;;;;11.50;9.60;;;;;;;12.21;100.00;99606.72;104397;1260;67944;-60
2023/10/24 05:52:47;;;;;;;12.60;10.50;;;;;;;12.21;100.00;99603.89;104432;1271;72449;-59
2023/10/24 05:55:15;;;;;;;13.10;11.00;;;;;;;12.24;100.00;99600.80;104317;1260;61473;-59
2023/10/24 05:57:43;;;;;;;11.60;10.40;;;;;;;12.30;100.00;99593.31;104379;1258;59772;-59
2023/10/24 06:00:11;;;;;;;12.40;10.00;;;;;;;12.30;100.00;99592.95;104234;1260;72774;-59
2023/10/24 06:02:38;;;;;;;11.10;10.00;;;;;;;12.32;100.00;99607.80;104356;1261;69045;-59
2023/10/24 06:05:07;;;;;;;14.40;10.50;;;;;;;12.33;100.00;99605.25;104247;1257;72374;-57
2023/10/24 06:07:35;;;;;;;11.50;10.40;;;;;;;12.44;100.00;99597.66;104311;1260;61898;-58
2023/10/24 06:10:04;;;;;;;10.90;9.70;;;;;;;12.52;100.00;99600.77;104426;1257;61565;-61
2023/10/24 06:12:33;;;;;;;11.70;10.30;;;;;;;12.50;100.00;99605.63;104400;1260;72890;-59
2023/10/24 06:15:03;;;;;;;15.00;9.60;;;;;;;12.48;100.00;99610.85;104565;1260;69742;-59
2023/10/24 06:17:31;;;;;;;11.60;10.10;;;;;;;12.50;100.00;99609.68;104403;1258;72864;-59
2023/10/24 06:19:59;;;;;;;10.10;9.10;;;;;;;12.54;100.00;99602.96;104435;1259;61363;-60
2023/10/24 06:22:30;;;;;;;;;;;;;;;12.63;100.00;99603.70;104355;1260;59840;-59
2023/10/24 06:24:58;;;;;;;10.70;9.30;;;;;;;12.72;100.00;99606.44;104377;1260;73253;-58
2023/10/24 06:27:26;;;;;;;10.50;9.50;;;;;;;12.76;100.00;99610.45;107361;1255;70111;-62
2023/10/24 06:29:54;;;;;;;11.30;9.50;;;;;;;12.85;100.00;99612.97;106593;1262;72898;-61
2023/10/24 06:32:22;;;;;;;;;;;;;;;12.91;100.00;99613.36;104454;1261;61853;-59
2023/10/24 06:34:49;;;;;;;9.80;8.80;;;;;;;12.97;100.00;99610.58;104378;1257;59714;-59
2023/10/24 06:37:17;;;;;;;;;;;;;;;13.08;100.00;99610.34;104533;1257;73248;-60
2023/10/24 06:39:46;;;;;;;;;;;;;;;13.12;100.00;99611.51;104483;1260;69235;-59
2023/10/24 06:42:14;;;;;;;9.90;9.00;;;;;;;13.13;100.00;99613.56;104720;1259;72353;-59
2023/10/24 06:44:41;;;;;;;9.30;8.50;;;;;;;13.16;100.00;99618.35;105944;1255;61829;-60
2023/10/24 06:47:09;;;;;;;9.70;8.80;;;;;;;13.20;100.00;99617.58;104702;1257;60318;-59
2023/10/24 06:49:37;;;;;;;9.40;8.50;;;;;;;13.25;100.00;99613.45;107910;1256;72889;-61
2023/10/24 06:52:06;;;;;;;9.70;8.20;;;;;;;13.31;100.00;99612.12;106456;1256;69432;-60
2023/10/24 06:54:34;;;;;;;9.20;8.30;;;;;;;13.38;100.00;99609.63;107815;1256;73930;-60
2023/10/24 06:57:01;;;;;;;11.10;8.00;;;;;;;13.49;100.00;99612.55;107898;1255;62390;-60
2023/10/24 06:59:29;;;;;;;10.90;8.60;;;;;;;13.58;100.00;99613.79;104283;1262;61031;-60
2023/10/24 07:01:57;;;;;;;8.30;7.60;;;;;;;13.65;100.00;99614.13;104989;1256;71842;-60
2023/10/24 07:04:25;;;;;;;8.60;7.70;;;;;;;13.68;100.00;99615.92;104402;1259;69042;-60
2023/10/24 07:06:53;;;;;;;9.10;8.20;;;;;;;13.81;100.00;99621.30;104425;1257;72898;-60
2023/10/24 07:09:20;;;;;;;8.90;8.10;;;;;;;13.91;100.00;99625.36;104615;1257;63839;-58
2023/10/24 07:11:48;;;;;;;10.40;9.10;;;;;;;13.97;100.00;99623.59;104717;1259;60720;-59
2023/10/24 07:14:15;;;;;;;10.00;8.50;;;;;;;14.05;100.00;99619.98;104711;1254;73003;-58
2023/10/24 07:16:43;;;;;;;;;;;;;;;14.10;100.00;99619.99;104586;1260;68068;-58
2023/10/24 07:19:12;;;;;;;12.40;8.70;;;;;;;14.17;100.00;99617.51;104261;1254;72507;-59
2023/10/24 07:21:39;;;;;;;10.80;7.90;;;;;;;14.25;100.00;99617.77;104357;1259;60653;-60
2023/10/24 07:24:08;;;;;;;8.70;8.00;;;;;;;14.33;100.00;99619.58;104507;1254;60333;-60
2023/10/24 07:26:35;;;;;;;7.90;7.10;;;;;;;14.43;100.00;99623.23;106139;1257;71970;-60
2023/10/24 07:29:03;;;;;;;7.10;6.40;;;;;;;14.51;100.00;99624.72;108363;1253;69605;-60
2023/10/24 07:31:31;;;;;;;8.70;7.10;;;;;;;14.52;100.00;99625.36;105522;1258;72674;-60
2023/10/24 07:33:59;;;;;;;;;;;;;;;14.57;100.00;99625.95;105015;1254;62394;-60
2023/10/24 07:36:30;;;;;;;6.90;6.20;;;;;;;14.66;100.00;99624.73;105297;1258;59623;-60
2023/10/24 07:39:00;;;;;;;9.10;6.40;;;;;;;14.74;100.00;99619.97;104990;1259;72720;-60
2023/10/24 07:41:28;;;;;;;6.80;6.10;;;;;;;14.84;100.00;99624.71;105399;1259;69000;-59
2023/10/24 07:43:56;;;;;;;6.60;5.80;;;;;;;14.90;100.00;99621.52;104487;1264;72331;-60
2023/10/24 07:46:24;;;;;;;8.00;6.30;;;;;;;14.99;100.00;99625.36;104472;1259;61457;-60
2023/10/24 07:48:52;;;;;;;6.40;5.80;;;;;;;15.02;100.00;99629.58;104740;1257;59879;-59
2023/10/24 07:51:20;;;;;;;6.40;5.60;;;;;;;15.07;100.00;99624.19;104794;1255;73138;-61
2023/10/24 07:53:48;;;;;;;;;;;;;;;15.12;100.00;99623.68;104804;1257;68391;-62
2023/10/24 07:56:16;;;;;;;4.90;4.30;;;;;;;15.20;100.00;99622.14;104837;1254;75902;-64
2023/10/24 07:58:44;;;;;;;5.80;4.30;;;;;;;15.29;100.00;99625.66;104589;1259;62015;-61
2023/10/24 08:01:12;;;;;;;4.40;4.00;;;;;;;15.37;100.00;99624.41;104608;1254;59906;-60
2023/10/24 08:03:39;;;;;;;7.70;4.40;;;;;;;15.45;100.00;99619.49;104673;1255;72813;-61
2023/10/24 08:06:07;;;;;;;4.20;3.80;;;;;;;15.52;100.00;99618.17;104538;1269;69452;-60
2023/10/24 08:08:35;;;;;;;4.40;3.80;;;;;;;15.53;100.00;99621.27;104602;1263;72344;-61
2023/10/24 08:11:03;;;;;;;4.20;3.90;;;;;;;15.59;100.00;99623.38;104879;1257;62390;-60
2023/10/24 08:13:30;;;;;;;6.70;4.60;;;;;;;15.64;100.00;99626.11;104472;1260;59936;-59
2023/10/24 08:15:58;;;;;;;6.20;3.50;;;;;;;15.71;100.00;99624.58;104647;1260;72876;-60
2023/10/24 08:18:26;;;;;;;;;;;;;;;15.78;100.00;99620.46;104490;1259;68330;-59
2023/10/24 08:20:55;;;;;;;3.70;3.40;;;;;;;15.82;100.00;99621.95;104651;1263;72543;-60
2023/10/24 17:31:58;;;;;;;21.80;17.30;;;;;;;12.37;100.00;99453.66;101546;1295;601755;-61
2023/10/24 17:34:27;;;;;;;20.40;16.40;;;;;;;12.77;100.00;99450.53;106037;1265;60351;-60
2023/10/24 17:36:54;;;;;;;25.20;18.20;;;;;;;12.70;100.00;99453.38;107245;1264;60119;-60
2023/10/24 17:39:22;;;;;;;24.50;18.00;;;;;;;12.69;100.00;99451.84;107205;1264;71328;-60
2023/10/24 17:41:50;;;;;;;28.80;19.00;;;;;;;12.65;100.00;99452.39;107038;1264;70556;-60
2023/10/24 17:44:18;;;;;;;23.40;17.90;;;;;;;12.64;100.00;99445.80;107086;1263;71832;-60
2023/10/24 17:46:46;;;;;;;25.10;17.50;;;;;;;12.63;100.00;99445.46;103970;1267;373538;-59
2023/10/24 17:49:14;;;;;;;24.20;17.70;;;;;;;12.60;100.00;99450.89;103892;1283;59930;-59
2023/10/24 17:51:42;;;;;;;24.80;17.50;;;;;;;12.59;100.00;99452.70;103853;1266;72700;-59
2023/10/24 17:54:09;;;;;;;;;;;;;;;12.58;100.00;99458.55;103960;1270;69263;-61
2023/10/24 17:56:42;;;;;;;21.30;15.30;;;;;;;12.57;100.00;99464.58;103962;1265;73930;-60
2023/10/24 17:59:10;;;;;;;20.00;15.70;;;;;;;12.51;100.00;99469.84;103807;1266;61536;-60
2023/10/24 18:01:38;;;;;;;24.70;18.30;;;;;;;12.44;100.00;99473.89;103959;1266;59931;-60
2023/10/24 18:04:06;;;;;;;24.90;18.80;;;;;;;12.43;100.00;99475.88;103979;1266;72708;-59
2023/10/24 18:06:34;;;;;;;23.00;17.30;;;;;;;12.42;100.00;99474.19;104234;1265;69725;-59
2023/10/24 18:09:03;;;;;;;21.70;15.90;;;;;;;12.40;100.00;99469.91;104320;1264;73188;-60
2023/10/24 18:11:33;;;;;;;20.90;16.60;;;;;;;12.36;100.00;99470.84;103980;1273;61598;-60
2023/10/24 18:14:03;;;;;;;20.50;15.60;;;;;;;12.32;100.00;99475.10;103996;1270;60399;-60
2023/10/24 18:16:31;;;;;;;19.50;15.40;;;;;;;12.29;100.00;99472.45;104357;1266;72193;-60
2023/10/24 18:19:01;;;;;;;;;;;;;;;12.26;100.00;99468.70;103943;1265;69627;-58
2023/10/24 18:21:29;;;;;;;16.90;13.90;;;;;;;12.26;100.00;99466.95;104136;1270;72492;-58
2023/10/24 18:23:57;;;;;;;17.10;13.30;;;;;;;12.21;100.00;99464.77;104098;1261;61468;-59
2023/10/24 18:26:25;;;;;;;17.60;13.00;;;;;;;12.21;100.00;99463.89;104275;1261;60336;-59
2023/10/24 18:28:53;;;;;;;15.80;11.70;;;;;;;12.21;100.00;99458.45;104061;1260;73415;-59
2023/10/24 18:31:21;;;;;;;14.30;10.30;;;;;;;12.21;100.00;99453.50;103956;1270;69674;-60
2023/10/24 18:33:49;;;;;;;15.30;11.60;;;;;;;12.24;100.00;99458.42;105014;1261;72897;-60
2023/10/24 18:36:17;;;;;;;12.00;10.30;;;;;;;12.21;100.00;99459.98;107382;1260;61522;-60
2023/10/24 18:38:44;;;;;;;;;;;;;;;12.24;100.00;99465.48;104290;1267;60349;-59
2023/10/24 18:41:12;;;;;;;;;;;;;;;12.23;100.00;99463.22;104355;1266;73209;-60
2023/10/24 18:43:40;;;;;;;13.90;10.60;;;;;;;12.22;100.00;99457.52;104373;1264;68634;-60
2023/10/24 18:46:09;;;;;;;12.60;10.30;;;;;;;12.20;100.00;99458.64;104018;1261;72534;-58
2023/10/24 18:48:37;;;;;;;14.00;10.70;;;;;;;12.18;100.00;99455.09;103775;1284;62082;-59
2023/10/24 18:51:06;;;;;;;;;;;;;;;12.14;100.00;99454.73;103858;1266;59842;-58
2023/10/24 18:53:35;;;;;;;12.40;10.20;;;;;;;12.09;100.00;99456.95;103844;1267;74036;-59
2023/10/24 18:56:03;;;;;;;13.20;10.80;;;;;;;12.03;100.00;99456.52;103865;1265;70191;-58
2023/10/24 18:58:30;;;;;;;;;;;;;;;11.99;100.00;99454.45;104134;1262;73168;-58
2023/10/24 19:01:00;;;;;;;14.70;11.10;;;;;;;11.96;100.00;99460.45;104048;1276;61388;-57
2023/10/24 19:03:30;;;;;;;12.90;11.30;;;;;;;11.88;100.00;99460.46;105174;1263;62509;-59
2023/10/24 19:05:58;;;;;;;17.30;12.60;;;;;;;11.84;100.00;99458.17;104904;1263;72962;-56
2023/10/24 19:08:26;;;;;;;18.70;14.40;;;;;;;11.84;100.00;99463.48;107676;1257;70206;-57
2023/10/24 19:10:55;;;;;;;17.30;13.70;;;;;;;11.84;100.00;99457.85;107301;1258;72469;-58
2023/10/24 19:13:24;;;;;;;18.60;12.90;;;;;;;11.83;100.00;99451.56;104442;1263;60991;-57
2023/10/24 19:15:52;;;;;;;17.40;14.60;;;;;;;11.76;100.00;99448.23;104685;1257;60395;-58
2023/10/24 19:18:20;;;;;;;16.30;14.40;;;;;;;11.76;100.00;99446.34;104488;1263;71694;-58
2023/10/24 19:20:49;;;;;;;20.10;15.30;;;;;;;11.71;100.00;99452.70;104564;1271;69249;-59
2023/10/24 19:23:17;;;;;;;20.30;16.00;;;;;;;11.64;100.00;99449.86;104529;1260;71520;-59
2023/10/24 19:25:44;;;;;;;;;;;;;;;11.63;100.00;99447.64;104275;1263;60942;-58
2023/10/24 19:28:12;;;;;;;;;;;;;;;11.60;100.00;99441.83;104440;1257;59732;-59
2023/10/24 19:30:44;;;;;;;20.50;14.70;;;;;;;11.58;100.00;99435.09;104225;1257;72829;-59
2023/10/24 19:33:12;;;;;;;19.50;15.60;;;;;;;11.51;100.00;99431.04;104305;1261;69265;-59
2023/10/24 19:35:40;;;;;;;;;;;;;;;11.47;100.00;99425.12;107850;1257;73269;-58
2023/10/24 19:38:08;;;;;;;;;;;;;;;11.46;100.00;99419.38;106300;1257;60663;-59
2023/10/24 19:40:37;;;;;;;21.30;16.50;;;;;;;11.44;100.00;99417.37;104725;1257;60299;-58
2023/10/24 19:43:06;;;;;;;24.40;18.20;;;;;;;11.43;100.00;99416.86;104241;1260;73150;-58
2023/10/24 19:45:34;;;;;;;26.10;19.80;;;;;;;11.44;100.00;99403.67;104419;1261;70198;-58
2023/10/24 19:48:16;;;;;;;26.70;19.20;;;;;;;11.45;100.00;99396.41;104224;1260;73327;-58
2023/10/24 19:50:44;;;;;;;23.40;17.80;;;;;;;11.42;100.00;99394.64;104337;1263;61062;-58
2023/10/24 19:53:12;;;;;;;22.80;17.20;;;;;;;11.41;100.00;99394.18;104245;1260;59790;-60
2023/10/24 19:55:41;;;;;;;18.80;14.80;;;;;;;11.43;100.00;99393.91;103994;1264;73150;-58
2023/10/24 19:58:09;;;;;;;17.10;14.30;;;;;;;11.46;100.00;99386.36;104093;1276;69680;-58
2023/10/24 20:00:37;;;;;;;20.70;14.10;;;;;;;11.49;100.00;99385.84;104208;1266;72515;-60
2023/10/24 20:03:06;;;;;;;16.90;14.30;;;;;;;11.53;100.00;99383.94;104209;1263;60862;-58
2023/10/24 20:05:35;;;;;;;16.70;13.80;;;;;;;11.53;100.00;99387.80;104385;1260;61069;-59
